Time,TemperatureF,DewpointF,PressureIn,WindDirection,WindDirectionDegrees,WindSpeedMPH,WindSpeedGustMPH,Humidity,HourlyPrecipIn,Conditions,Clouds,dailyrainin,SoftwareType,DateUTC
2013-03-31 01:00:00,51.0,-99.9,-100.00,NW,319,2.0,5.0,-999,-99.99,,,-99.99,,2013-03-31 08:00:00,
2013-03-31 01:33:00,54.0,-99.9,-100.00,West,269,1.0,5.0,-999,-99.99,,,-99.99,,2013-03-31 08:33:00,
2013-03-31 01:43:00,54.0,-99.9,-100.00,West,269,1.0,5.0,-999,-99.99,,,-99.99,,2013-03-31 08:43:00,
2013-03-31 01:52:00,51.0,-99.9,-100.00,NW,319,2.0,5.0,-999,-99.99,,,-99.99,,2013-03-31 08:52:00,
2013-03-31 02:22:00,53.0,-99.9,-100.00,WNW,301,2.0,5.0,-999,-99.99,,,-99.99,,2013-03-31 09:22:00,
2013-03-31 02:33:00,49.0,-99.9,-100.00,West,260,3.0,5.0,-999,-99.99,,,-99.99,,2013-03-31 09:33:00,
2013-03-31 02:43:00,49.0,-99.9,-100.00,West,260,3.0,5.0,-999,-99.99,,,-99.99,,2013-03-31 09:43:00,
2013-03-31 02:54:00,51.0,-99.9,-100.00,WSW,257,6.0,9.0,-999,-99.99,,,-99.99,,2013-03-31 09:54:00,
2013-03-31 03:03:00,51.0,-99.9,-100.00,WSW,257,6.0,9.0,-999,-99.99,,,-99.99,,2013-03-31 10:03:00,
2013-03-31 03:10:00,48.0,-99.9,-100.00,WNW,289,4.0,7.0,-999,-99.99,,,-99.99,,2013-03-31 10:10:00,
2013-03-31 03:33:00,51.0,-99.9,-100.00,West,266,4.0,6.0,-999,-99.99,,,-99.99,,2013-03-31 10:33:00,
2013-03-31 03:42:00,51.0,-99.9,-100.00,West,266,4.0,6.0,-999,-99.99,,,-99.99,,2013-03-31 10:42:00,
2013-03-31 03:53:00,48.0,-99.9,-100.00,WNW,289,4.0,7.0,-999,-99.99,,,-99.99,,2013-03-31 10:53:00,
2013-03-31 04:03:00,48.0,-99.9,-100.00,WNW,289,4.0,7.0,-999,-99.99,,,-99.99,,2013-03-31 11:03:00,
2013-03-31 04:33:00,49.0,-99.9,-100.00,West,267,5.0,10.0,-999,-99.99,,,-99.99,,2013-03-31 11:33:00,
2013-03-31 04:43:00,49.0,-99.9,-100.00,West,267,5.0,10.0,-999,-99.99,,,-99.99,,2013-03-31 11:43:00,
2013-03-31 04:53:00,48.0,-99.9,-100.00,WSW,246,5.0,11.0,-999,-99.99,,,-99.99,,2013-03-31 11:53:00,
2013-03-31 05:03:00,48.0,-99.9,-100.00,WSW,246,5.0,11.0,-999,-99.99,,,-99.99,,2013-03-31 12:03:00,
2013-03-31 06:23:00,47.0,-99.9,-100.00,West,260,3.0,6.0,-999,-99.99,,,-99.99,,2013-03-31 13:23:00,
2013-03-31 06:33:00,47.0,-99.9,-100.00,West,260,3.0,6.0,-999,-99.99,,,-99.99,,2013-03-31 13:33:00,
2013-03-31 07:33:00,47.0,-99.9,-100.00,WSW,238,3.0,8.0,-999,-99.99,,,-99.99,,2013-03-31 14:33:00,
2013-03-31 07:43:00,47.0,-99.9,-100.00,WSW,238,3.0,8.0,-999,-99.99,,,-99.99,,2013-03-31 14:43:00,
2013-03-31 07:53:00,47.0,-99.9,-100.00,WSW,238,3.0,8.0,-999,-99.99,,,-99.99,,2013-03-31 14:53:00,
2013-03-31 08:03:00,48.0,-99.9,-100.00,WSW,247,7.0,10.0,-999,-99.99,,,-99.99,,2013-03-31 15:03:00,
2013-03-31 08:13:00,48.0,-99.9,-100.00,WSW,247,7.0,10.0,-999,-99.99,,,-99.99,,2013-03-31 15:13:00,
2013-03-31 08:23:00,48.0,-99.9,-100.00,WSW,247,7.0,10.0,-999,-99.99,,,-99.99,,2013-03-31 15:23:00,
2013-03-31 08:34:00,47.0,-99.9,-100.00,West,263,5.0,10.0,-999,-99.99,,,-99.99,,2013-03-31 15:34:00,
2013-03-31 08:44:00,47.0,-99.9,-100.00,West,263,5.0,10.0,-999,-99.99,,,-99.99,,2013-03-31 15:44:00,
2013-03-31 08:54:00,47.0,-99.9,-100.00,West,263,5.0,10.0,-999,-99.99,,,-99.99,,2013-03-31 15:54:00,
2013-03-31 09:23:00,47.0,-99.9,-100.00,WNW,283,5.0,7.0,-999,-99.99,,,-99.99,,2013-03-31 16:23:00,
2013-03-31 09:34:00,50.0,-99.9,-100.00,WNW,286,3.0,10.0,-999,-99.99,,,-99.99,,2013-03-31 16:34:00,
2013-03-31 09:43:00,50.0,-99.9,-100.00,WNW,286,3.0,10.0,-999,-99.99,,,-99.99,,2013-03-31 16:43:00,
2013-03-31 09:54:00,50.0,-99.9,-100.00,WNW,286,3.0,10.0,-999,-99.99,,,-99.99,,2013-03-31 16:54:00,
2013-03-31 10:03:00,51.0,-99.9,-100.00,NW,304,3.0,5.0,-999,-99.99,,,-99.99,,2013-03-31 17:03:00,
2013-03-31 10:13:00,51.0,-99.9,-100.00,NW,304,3.0,5.0,-999,-99.99,,,-99.99,,2013-03-31 17:13:00,
2013-03-31 10:33:00,51.0,-99.9,-100.00,NE,50,2.0,4.0,-999,-99.99,,,-99.99,,2013-03-31 17:33:00,
2013-03-31 10:43:00,51.0,-99.9,-100.00,NE,50,2.0,4.0,-999,-99.99,,,-99.99,,2013-03-31 17:43:00,
2013-03-31 10:53:00,51.0,-99.9,-100.00,NE,50,2.0,4.0,-999,-99.99,,,-99.99,,2013-03-31 17:53:00,
2013-03-31 11:33:00,58.0,-99.9,-100.00,ENE,62,1.0,5.0,-999,-99.99,,,-99.99,,2013-03-31 18:33:00,
2013-03-31 11:43:00,58.0,-99.9,-100.00,ENE,62,1.0,5.0,-999,-99.99,,,-99.99,,2013-03-31 18:43:00,
2013-03-31 11:53:00,58.0,-99.9,-100.00,ENE,62,1.0,5.0,-999,-99.99,,,-99.99,,2013-03-31 18:53:00,
2013-03-31 12:33:00,63.0,-99.9,-100.00,East,91,3.0,8.0,-999,-99.99,,,-99.99,,2013-03-31 19:33:00,
2013-03-31 12:43:00,63.0,-99.9,-100.00,East,91,3.0,8.0,-999,-99.99,,,-99.99,,2013-03-31 19:43:00,
2013-03-31 12:54:00,63.0,-99.9,-100.00,East,91,3.0,8.0,-999,-99.99,,,-99.99,,2013-03-31 19:54:00,
2013-03-31 13:10:00,68.0,-99.9,-100.00,ENE,69,3.0,8.0,-999,-99.99,,,-99.99,,2013-03-31 20:10:00,
2013-03-31 13:34:00,68.0,-99.9,-100.00,East,89,4.0,9.0,-999,-99.99,,,-99.99,,2013-03-31 20:34:00,
2013-03-31 13:44:00,68.0,-99.9,-100.00,East,89,4.0,9.0,-999,-99.99,,,-99.99,,2013-03-31 20:44:00,
2013-03-31 13:53:00,68.0,-99.9,-100.00,ENE,69,3.0,8.0,-999,-99.99,,,-99.99,,2013-03-31 20:53:00,
2013-03-31 14:03:00,68.0,-99.9,-100.00,ENE,69,3.0,8.0,-999,-99.99,,,-99.99,,2013-03-31 21:03:00,
2013-03-31 14:34:00,70.0,-99.9,-100.00,NE,41,6.0,7.0,-999,-99.99,,,-99.99,,2013-03-31 21:34:00,
2013-03-31 14:44:00,70.0,-99.9,-100.00,NE,41,6.0,7.0,-999,-99.99,,,-99.99,,2013-03-31 21:44:00,
2013-03-31 14:54:00,70.0,-99.9,-100.00,NE,41,6.0,7.0,-999,-99.99,,,-99.99,,2013-03-31 21:54:00,
2013-03-31 15:10:00,76.0,-99.9,-100.00,NNE,18,2.0,4.0,-999,-99.99,,,-99.99,,2013-03-31 22:10:00,
2013-03-31 15:24:00,71.0,-99.9,-100.00,ENE,71,5.0,8.0,-999,-99.99,,,-99.99,,2013-03-31 22:24:00,
2013-03-31 15:34:00,73.0,-99.9,-100.00,SW,215,2.0,9.0,-999,-99.99,,,-99.99,,2013-03-31 22:34:00,
2013-03-31 15:43:00,73.0,-99.9,-100.00,SW,215,2.0,9.0,-999,-99.99,,,-99.99,,2013-03-31 22:43:00,
2013-03-31 15:54:00,76.0,-99.9,-100.00,NNE,18,2.0,4.0,-999,-99.99,,,-99.99,,2013-03-31 22:54:00,
2013-03-31 16:00:00,75.0,-99.9,-100.00,SSE,157,3.0,6.0,-999,-99.99,,,-99.99,,2013-03-31 23:00:00,
2013-03-31 16:03:00,76.0,-99.9,-100.00,NNE,18,2.0,4.0,-999,-99.99,,,-99.99,,2013-03-31 23:03:00,
2013-03-31 16:54:00,75.0,-99.9,-100.00,SSE,157,3.0,6.0,-999,-99.99,,,-99.99,,2013-03-31 23:54:00,
2013-03-31 18:20:00,73.0,-99.9,-100.00,SSE,165,2.0,3.0,-999,-99.99,,,-99.99,,2013-04-01 01:20:00,
2013-03-31 18:23:00,75.0,-99.9,-100.00,SSE,159,4.0,5.0,-999,-99.99,,,-99.99,,2013-04-01 01:23:00,
2013-03-31 18:33:00,77.0,-99.9,-100.00,SE,137,2.0,4.0,-999,-99.99,,,-99.99,,2013-04-01 01:33:00,
2013-03-31 18:43:00,77.0,-99.9,-100.00,SE,137,2.0,4.0,-999,-99.99,,,-99.99,,2013-04-01 01:43:00,
2013-03-31 18:53:00,77.0,-99.9,-100.00,SE,137,2.0,4.0,-999,-99.99,,,-99.99,,2013-04-01 01:53:00,
2013-03-31 19:00:00,69.0,-99.9,-100.00,South,185,0.0,1.0,-999,-99.99,,,-99.99,,2013-04-01 02:00:00,
2013-03-31 19:03:00,73.0,-99.9,-100.00,SSE,165,2.0,3.0,-999,-99.99,,,-99.99,,2013-04-01 02:03:00,
2013-03-31 19:13:00,73.0,-99.9,-100.00,SSE,165,2.0,3.0,-999,-99.99,,,-99.99,,2013-04-01 02:13:00,
2013-03-31 19:33:00,69.0,-99.9,-100.00,South,170,0.0,1.0,-999,-99.99,,,-99.99,,2013-04-01 02:33:00,
2013-03-31 19:43:00,69.0,-99.9,-100.00,South,170,0.0,1.0,-999,-99.99,,,-99.99,,2013-04-01 02:43:00,
2013-03-31 19:53:00,69.0,-99.9,-100.00,South,185,0.0,1.0,-999,-99.99,,,-99.99,,2013-04-01 02:53:00,
2013-03-31 20:35:00,65.0,-99.9,-100.00,SW,236,3.0,3.0,-999,-99.99,,,-99.99,,2013-04-01 03:35:00,
2013-03-31 20:44:00,65.0,-99.9,-100.00,SW,236,3.0,3.0,-999,-99.99,,,-99.99,,2013-04-01 03:44:00,
2013-03-31 20:53:00,65.0,-99.9,-100.00,SW,236,3.0,3.0,-999,-99.99,,,-99.99,,2013-04-01 03:53:00,
2013-03-31 21:33:00,62.0,-99.9,-100.00,West,267,6.0,6.0,-999,-99.99,,,-99.99,,2013-04-01 04:33:00,
2013-03-31 21:44:00,62.0,-99.9,-100.00,West,267,6.0,6.0,-999,-99.99,,,-99.99,,2013-04-01 04:44:00,
2013-03-31 21:53:00,62.0,-99.9,-100.00,West,267,6.0,6.0,-999,-99.99,,,-99.99,,2013-04-01 04:53:00,
2013-03-31 22:33:00,58.0,-99.9,-100.00,SW,226,5.0,7.0,-999,-99.99,,,-99.99,,2013-04-01 05:33:00,
2013-03-31 22:43:00,58.0,-99.9,-100.00,SW,226,5.0,7.0,-999,-99.99,,,-99.99,,2013-04-01 05:43:00,
2013-03-31 22:53:00,58.0,-99.9,-100.00,SW,226,5.0,7.0,-999,-99.99,,,-99.99,,2013-04-01 05:53:00,
2013-03-31 23:23:00,57.0,-99.9,-100.00,WSW,244,5.0,8.0,-999,-99.99,,,-99.99,,2013-04-01 06:23:00,
2013-03-31 23:34:00,56.0,-99.9,-100.00,WSW,238,4.0,7.0,-999,-99.99,,,-99.99,,2013-04-01 06:34:00,
2013-03-31 23:43:00,56.0,-99.9,-100.00,WSW,238,4.0,7.0,-999,-99.99,,,-99.99,,2013-04-01 06:43:00,
2013-03-31 23:53:00,56.0,-99.9,-100.00,WSW,238,4.0,7.0,-999,-99.99,,,-99.99,,2013-04-01 06:53:00,